LFBZLFBP

Guest
Details From LFBZ - Biarritz-Anglet-Bayonne
To LFBP - Pau Pyrenees
Flight Number -
Tags generated
Created
Modified
Stats Distance 48 nm / 90 km
Max Altitude 100 ft / 30 m
Waypoints 3
Social Downloads 10
Likes 0
Share VATSIM

Download

Looking for another format? Having issues loading an existing format? Contact us
Advertisement - Login to hide

Notes

Basic altitude profile: - Ascent Rate: 1000ft/min - Ascent Speed: 150kts - Cruise Altitude: 35000ft - Cruise Speed: 250kts - Descent Rate: 1000ft/min - Descent Speed: 150kts

Route

LFBZ BTZ LFBP

ID Type Via Altitude Latitude Longitude Leg Dist Tot Dist Heading (true) Name
O LFBZ APT - 0 ft / 0 m 43.46843˚ -1.52332˚ - 0 nm - Biarritz-Anglet-Bayonne
BTZ VOR - 100 ft / 30 m 43.46664˚ -1.51028˚ 0 nm 0 nm 101° / 101° BIARRITZ BAYONNE ANGLET VOR-DM
O LFBP APT - 0 ft / 0 m 43.38108˚ -0.42075˚ 47 nm 48 nm 96° / 97° Pau Pyrenees

Altitude Profile

Advertisement - Login to hide

LFBZ

Details ICAO LFBZ (BIQ)
Name Biarritz-Anglet-Bayonne
Region France
Timezone Europe/Paris (UTC+2.0)
Stats Elevation 245 ft / 75 m (AMSL)
Location 43.468427° -1.523322°
Runways 1
Magnetic Variation 0.171° W

METAR

LFBZ 241030Z AUTO 07006KT 030V110 CAVOK 23/16 Q1016 NOSIG

Decode

TAF

TAF LFBZ 240500Z 2406/2506 12005KT 6000 SCT060 BECMG 2410/2412 35010KT TEMPO 2414/2420 30015G25KT 2000 TSRA SCT020 BKN050CB TEMPO 2502/2506 2000 BR BKN002

Decode

Departure Runways

ID Width Length Bearing (true) Bearing (mag) Surface Threshold Offset Overrun Length
09 148 ft / 45 m 7,388 ft / 2,252 m 89.12° 89.29° Asphalt 673 ft / 205 m 0 ft / 0 m
27 148 ft / 45 m 7,388 ft / 2,252 m 269.14° 269.31° Asphalt 0 ft / 0 m 0 ft / 0 m

LFBP

Details ICAO LFBP (PUF)
Name Pau Pyrenees
Region France
Timezone Europe/Paris (UTC+2.0)
Stats Elevation 616 ft / 188 m (AMSL)
Location 43.381078° -0.420752°
Runways 1
Magnetic Variation 0.148° E

METAR

LFBP 241030Z AUTO 04006KT 360V070 9999 FEW084 SCT110 19/16 Q1017 NOSIG

Decode

TAF

TAF AMD LFBP 240851Z 2408/2506 VRB02KT 9999 BKN080 TEMPO 2408/2409 4500 -SHRA SCT020 BKN070TCU TEMPO 2414/2422 06015G25KT 2000 TSRA BKN040CB TEMPO 2503/2506 2000 BCFG BKN003

Decode

Destination Runways

ID Width Length Bearing (true) Bearing (mag) Surface Threshold Offset Overrun Length
13 148 ft / 45 m 8,191 ft / 2,497 m 125.89° 125.74° Asphalt 0 ft / 0 m 0 ft / 0 m
31 148 ft / 45 m 8,191 ft / 2,497 m 305.90° 305.75° Asphalt 0 ft / 0 m 0 ft / 0 m

Approach Navaids

Runway Type Ident Frequency Range Bearing (true) Bearing (mag) Slope Elevation
31 Localiser PU 110.10 MHz 18 nm / 33 km 305.89° 305.74° - 576 ft / 176 m (AMSL)
31 Glidescope PU 110.10 MHz 10 nm / 19 km 305.90° 305.75° 3.00° 676 ft / 206 m (AMSL)
31 DME PU 110.10 MHz 18 nm / 33 km - - - 608 ft / 185 m (AMSL)

Popular Alternatives